createdAt,value
2023-04-18T00:00:51.347Z,34.30
2023-04-18T00:03:20.876Z,74.90
2023-04-18T00:05:49.784Z,51.63
2023-04-18T00:08:17.823Z,38.77
2023-04-18T00:10:47.244Z,85.70
2023-04-18T00:13:18.302Z,61.30
2023-04-18T00:15:46.345Z,93.40
2023-04-18T00:18:16.937Z,133.33
2023-04-18T00:20:46.133Z,204.60
2023-04-18T00:23:14.948Z,47.67
2023-04-18T00:25:42.964Z,51.03
2023-04-18T00:28:12.266Z,43.03
2023-04-18T00:30:40.323Z,35.13
2023-04-18T00:33:08.949Z,39.20
2023-04-18T00:35:38.138Z,179.13
2023-04-18T00:38:06.121Z,37.33
2023-04-18T00:40:34.214Z,66.93
2023-04-18T00:43:02.171Z,183.53
2023-04-18T00:45:31.665Z,58.37
2023-04-18T00:47:59.698Z,37.60
2023-04-18T00:50:28.068Z,119.43
2023-04-18T00:52:56.164Z,364.50
2023-04-18T00:55:25.084Z,130.83
2023-04-18T00:57:53.488Z,340.97
2023-04-18T01:00:21.553Z,57.00
2023-04-18T01:02:53.262Z,57.13
2023-04-18T01:05:22.196Z,429.20
2023-04-18T01:07:50.716Z,38.83
2023-04-18T01:10:18.837Z,50.80
2023-04-18T01:12:46.828Z,315.97
2023-04-18T01:15:15.979Z,72.97
2023-04-18T01:17:43.969Z,93.50
2023-04-18T01:20:16.826Z,708.53
2023-04-18T01:22:44.868Z,126.70
2023-04-18T01:25:14.691Z,122.53
2023-04-18T01:27:42.630Z,45.20
2023-04-18T01:30:11.873Z,910.20
2023-04-18T01:32:39.878Z,243.73
2023-04-18T01:35:08.736Z,105.00
2023-04-18T01:37:36.670Z,104.33
2023-04-18T01:40:05.619Z,759.10
2023-04-18T01:42:34.946Z,59.80
2023-04-18T01:45:03.086Z,99.50
2023-04-18T01:47:31.089Z,411.77
2023-04-18T01:49:59.098Z,112.23
2023-04-18T01:52:27.808Z,42.33
2023-04-18T01:54:55.877Z,183.17
2023-04-18T01:57:23.906Z,134.07
2023-04-18T01:59:53.203Z,181.63
2023-04-18T02:02:21.442Z,197.03
2023-04-18T02:04:49.478Z,178.80
2023-04-18T02:07:17.455Z,111.93
2023-04-18T02:09:45.495Z,150.27
2023-04-18T02:12:13.629Z,237.07
2023-04-18T02:14:41.600Z,83.60
2023-04-18T02:17:10.928Z,221.93
2023-04-18T02:19:38.855Z,73.63
2023-04-18T02:22:06.810Z,240.33
2023-04-18T02:24:34.764Z,398.93
2023-04-18T02:27:02.746Z,569.77
2023-04-18T02:29:31.170Z,87.93
2023-04-18T02:31:59.360Z,640.73
2023-04-18T02:34:28.734Z,161.27
2023-04-18T02:36:56.700Z,261.73
2023-04-18T02:39:24.769Z,244.80
2023-04-18T02:41:52.764Z,474.20
2023-04-18T02:44:20.731Z,104.97
2023-04-18T02:46:48.713Z,79.93
2023-04-18T02:49:16.635Z,235.03
2023-04-18T02:51:46.602Z,94.00
2023-04-18T02:54:14.743Z,177.47
2023-04-18T02:56:43.092Z,223.27
2023-04-18T02:59:11.036Z,443.20
2023-04-18T03:01:39.072Z,49.40
2023-04-18T03:04:07.117Z,45.83
2023-04-18T03:06:35.093Z,157.07
2023-04-18T03:09:04.601Z,459.00
2023-04-18T03:11:32.590Z,45.17
2023-04-18T03:14:00.537Z,288.83
2023-04-18T03:16:28.569Z,37.43
2023-04-18T03:18:56.567Z,462.17
2023-04-18T03:21:24.637Z,299.43
2023-04-18T03:23:53.147Z,55.33
2023-04-18T03:26:22.562Z,97.87
2023-04-18T03:28:50.500Z,78.33
2023-04-18T03:31:18.560Z,57.73
2023-04-18T03:33:47.017Z,85.20
2023-04-18T03:36:17.381Z,86.83
2023-04-18T03:38:45.402Z,28.93
2023-04-18T03:41:13.396Z,42.67
2023-04-18T03:43:42.683Z,144.07
2023-04-18T03:46:10.671Z,65.80
2023-04-18T03:48:38.654Z,164.70
2023-04-18T03:51:07.513Z,44.43
2023-04-18T03:53:35.749Z,75.87
2023-04-18T03:56:03.851Z,54.60
2023-04-18T03:58:31.771Z,59.57
2023-04-18T04:01:01.627Z,266.33
2023-04-18T04:03:30.037Z,181.47
2023-04-18T04:05:58.263Z,67.17
2023-04-18T04:08:28.095Z,63.00
2023-04-18T04:10:56.286Z,134.17
2023-04-18T04:13:24.255Z,325.30
2023-04-18T04:15:52.781Z,49.37
2023-04-18T04:18:25.408Z,228.83
2023-04-18T04:20:53.387Z,91.53
2023-04-18T04:23:22.737Z,64.10
2023-04-18T04:25:50.729Z,104.63
2023-04-18T04:28:18.650Z,633.20
2023-04-18T04:30:46.599Z,377.87
2023-04-18T04:33:14.555Z,59.30
2023-04-18T04:35:44.756Z,53.30
2023-04-18T04:38:13.095Z,693.03
2023-04-18T04:40:41.180Z,32.50
2023-04-18T04:43:12.808Z,111.90
2023-04-18T04:45:41.510Z,133.40
2023-04-18T04:48:09.803Z,38.90
2023-04-18T04:50:39.679Z,81.70
2023-04-18T04:53:09.194Z,233.87
2023-04-18T04:55:38.557Z,309.17
2023-04-18T04:58:06.527Z,60.60
2023-04-18T05:00:34.495Z,311.73
2023-04-18T05:03:02.742Z,60.73
2023-04-18T05:05:31.570Z,417.30
2023-04-18T05:07:59.548Z,59.27
2023-04-18T05:10:28.937Z,176.53
2023-04-18T05:12:56.880Z,35.77
2023-04-18T05:15:25.180Z,53.33
2023-04-18T05:17:53.172Z,94.10
2023-04-18T05:20:22.427Z,73.20
2023-04-18T05:22:50.469Z,227.47
2023-04-18T05:25:18.543Z,84.27
2023-04-18T05:27:48.066Z,331.03
2023-04-18T05:30:16.206Z,252.43
2023-04-18T05:32:44.504Z,54.63
2023-04-18T05:35:12.516Z,32.03
2023-04-18T05:37:40.530Z,203.50
2023-04-18T05:40:10.633Z,265.37
2023-04-18T05:42:38.605Z,170.10
2023-04-18T05:45:09.291Z,141.53
2023-04-18T05:47:37.352Z,90.97
2023-04-18T05:50:06.165Z,42.17
2023-04-18T05:52:34.317Z,343.80
2023-04-18T05:55:02.431Z,156.63
2023-04-18T05:57:30.441Z,153.80
2023-04-18T05:59:58.776Z,425.33
2023-04-18T06:02:28.296Z,116.30
2023-04-18T06:04:56.629Z,113.93
2023-04-18T06:07:25.405Z,501.90
2023-04-18T06:09:54.007Z,71.47
2023-04-18T06:12:22.045Z,480.53
2023-04-18T06:14:51.163Z,222.43
2023-04-18T06:17:19.259Z,381.33
2023-04-18T06:19:48.564Z,471.80
2023-04-18T06:22:16.554Z,835.00
2023-04-18T06:24:44.827Z,85.63
2023-04-18T06:27:27.842Z,485.43
2023-04-18T06:29:59.062Z,108.73
2023-04-18T06:32:27.184Z,322.60
2023-04-18T06:34:56.564Z,767.87
2023-04-18T06:37:25.040Z,158.77
2023-04-18T06:39:53.021Z,421.77
2023-04-18T06:42:22.184Z,102.30
2023-04-18T06:44:50.596Z,483.00
2023-04-18T06:47:18.657Z,92.00
2023-04-18T06:49:46.633Z,91.40
2023-04-18T06:52:15.980Z,94.47
2023-04-18T06:54:43.989Z,456.47
2023-04-18T06:57:12.145Z,342.70
2023-04-18T06:59:41.349Z,537.30
2023-04-18T07:02:09.534Z,562.80
2023-04-18T07:04:37.603Z,184.93
2023-04-18T07:07:05.780Z,126.67
2023-04-18T07:09:35.084Z,195.20
2023-04-18T07:12:03.117Z,279.13
2023-04-18T07:14:32.857Z,216.83
2023-04-18T07:17:02.348Z,283.23
2023-04-18T07:19:30.357Z,266.77
2023-04-18T07:21:58.348Z,453.30
2023-04-18T07:24:26.330Z,387.70
2023-04-18T07:26:55.736Z,177.43
2023-04-18T07:29:23.720Z,552.43
2023-04-18T07:31:52.004Z,628.53
2023-04-18T07:34:19.991Z,335.50
2023-04-18T07:36:47.999Z,393.83
2023-04-18T07:39:16.123Z,711.13
2023-04-18T07:41:44.132Z,346.53
2023-04-18T07:44:13.610Z,321.80
2023-04-18T07:46:42.151Z,474.53
2023-04-18T07:49:10.176Z,712.07
2023-04-18T07:51:38.147Z,335.13
2023-04-18T07:54:06.229Z,454.33
2023-04-18T07:56:34.209Z,872.10
2023-04-18T07:59:02.678Z,516.50
2023-04-18T08:01:32.165Z,745.53
2023-04-18T08:04:02.053Z,809.70
2023-04-18T08:06:30.678Z,609.10
2023-04-18T08:09:03.064Z,619.53
2023-04-18T08:11:31.292Z,573.33
2023-04-18T08:13:59.262Z,619.70
2023-04-18T08:16:27.371Z,762.47
2023-04-18T08:18:56.796Z,320.53
2023-04-18T08:21:25.117Z,515.80
2023-04-18T08:23:53.158Z,387.93
2023-04-18T08:26:21.859Z,567.17
2023-04-18T08:28:49.975Z,902.73
2023-04-18T08:31:18.012Z,999.90
2023-04-18T08:33:45.996Z,587.67
2023-04-18T08:36:15.497Z,901.83
2023-04-18T08:38:43.460Z,459.23
2023-04-18T08:41:11.413Z,275.00
2023-04-18T08:43:39.696Z,579.83
2023-04-18T08:46:09.130Z,812.20
2023-04-18T08:48:38.048Z,646.13
2023-04-18T08:51:06.458Z,999.90
2023-04-18T08:53:36.818Z,521.63
2023-04-18T08:56:05.477Z,516.90
2023-04-18T08:58:34.804Z,584.00
2023-04-18T09:01:03.387Z,726.67
2023-04-18T09:03:39.808Z,607.57
2023-04-18T09:06:09.463Z,414.37
2023-04-18T09:08:39.152Z,656.93
2023-04-18T09:11:25.885Z,993.87
2023-04-18T09:13:56.017Z,450.50
2023-04-18T09:16:24.913Z,676.27
2023-04-18T09:19:13.993Z,598.17
2023-04-18T09:21:44.480Z,602.73
2023-04-18T09:24:23.750Z,650.90
2023-04-18T09:26:53.833Z,675.23
2023-04-18T09:29:23.450Z,662.70
2023-04-18T09:31:56.060Z,815.57
2023-04-18T09:34:26.481Z,348.13
2023-04-18T09:37:15.494Z,628.27
2023-04-18T09:39:45.800Z,268.37
2023-04-18T09:42:14.167Z,648.60
2023-04-18T09:45:04.872Z,556.73
2023-04-18T09:47:35.084Z,674.53
2023-04-18T09:50:04.508Z,715.53
2023-04-18T09:52:35.228Z,721.03
2023-04-18T09:55:06.509Z,807.80
2023-04-18T09:57:36.064Z,616.23
2023-04-18T10:00:13.961Z,635.97
2023-04-18T10:02:51.870Z,628.53
2023-04-18T10:05:21.824Z,750.77
2023-04-18T10:07:51.172Z,466.87
2023-04-18T10:10:20.601Z,889.37
2023-04-18T10:12:50.916Z,668.63
2023-04-18T10:15:21.079Z,445.93
2023-04-18T10:18:03.759Z,753.80
2023-04-18T10:20:34.550Z,462.43
2023-04-18T10:23:35.686Z,750.07
2023-04-18T10:26:06.234Z,399.77
2023-04-18T10:28:56.483Z,941.10
2023-04-18T10:31:25.709Z,710.53
2023-04-18T10:36:28.581Z,583.63
2023-04-18T10:39:00.750Z,840.73
2023-04-18T10:41:31.262Z,561.07
2023-04-18T10:44:18.243Z,999.90
2023-04-18T10:47:32.427Z,999.90
2023-04-18T10:50:06.268Z,851.03
2023-04-18T10:52:35.122Z,909.37
2023-04-18T10:55:19.428Z,999.90
2023-04-18T10:57:50.507Z,992.60
2023-04-18T11:00:21.590Z,985.67
2023-04-18T11:02:51.962Z,670.10
2023-04-18T11:05:21.983Z,943.30
2023-04-18T11:07:50.285Z,920.50
2023-04-18T11:10:20.103Z,772.87
2023-04-18T11:12:49.583Z,999.90
2023-04-18T11:15:21.663Z,918.63
2023-04-18T11:17:58.362Z,999.90
2023-04-18T11:20:26.614Z,999.90
2023-04-18T11:22:56.754Z,928.53
2023-04-18T11:25:26.910Z,923.50
2023-04-18T11:27:59.158Z,999.90
2023-04-18T11:30:27.304Z,999.90
2023-04-18T11:32:56.068Z,845.20
2023-04-18T11:35:24.472Z,999.90
2023-04-18T11:37:52.455Z,999.90
2023-04-18T11:40:20.452Z,999.90
2023-04-18T11:42:48.460Z,999.90
2023-04-18T11:45:17.799Z,999.90
2023-04-18T11:47:48.346Z,999.90
2023-04-18T11:50:16.449Z,999.90
2023-04-18T11:52:44.540Z,999.90
2023-04-18T11:55:14.639Z,999.90
2023-04-18T11:57:42.863Z,986.23
2023-04-18T12:00:12.493Z,991.93
2023-04-18T12:02:43.742Z,999.90
2023-04-18T12:05:14.910Z,999.90
2023-04-18T12:07:45.942Z,999.90
2023-04-18T12:10:26.024Z,999.90
2023-04-18T12:12:55.622Z,999.90
2023-04-18T12:15:27.243Z,985.90
2023-04-18T12:18:00.801Z,999.90
2023-04-18T12:20:36.455Z,980.35
2023-04-18T12:23:05.085Z,999.90
2023-04-18T12:25:33.624Z,948.08
2023-04-18T12:28:03.532Z,999.90
2023-04-18T12:30:34.140Z,997.05
2023-04-18T12:33:06.673Z,999.90
2023-04-18T12:35:34.743Z,999.90
2023-04-18T12:38:03.775Z,999.90
2023-04-18T12:40:31.878Z,999.90
2023-04-18T12:43:01.580Z,999.90
2023-04-18T12:45:31.832Z,999.90
2023-04-18T12:48:00.189Z,999.90
2023-04-18T12:50:29.866Z,950.30
2023-04-18T12:53:00.474Z,999.90
2023-04-18T12:55:28.869Z,999.90
2023-04-18T12:57:58.091Z,999.90
2023-04-18T13:00:30.393Z,999.90
2023-04-18T13:02:59.608Z,999.90
2023-04-18T13:05:33.418Z,999.90
2023-04-18T13:10:33.152Z,999.90
2023-04-18T13:13:01.126Z,999.90
2023-04-18T13:15:29.176Z,942.43
2023-04-18T13:17:57.404Z,999.90
2023-04-18T13:20:26.274Z,999.90
2023-04-18T13:22:55.765Z,999.90
2023-04-18T13:25:23.937Z,999.90
2023-04-18T13:27:51.977Z,999.90
2023-04-18T13:30:20.012Z,999.90
2023-04-18T13:32:48.051Z,999.90
2023-04-18T13:35:16.134Z,999.90
2023-04-18T13:37:44.426Z,999.90
2023-04-18T13:40:14.336Z,999.90
2023-04-18T13:42:42.378Z,999.90
2023-04-18T13:45:11.059Z,999.90
2023-04-18T13:47:39.548Z,989.42
2023-04-18T13:50:08.956Z,926.97
2023-04-18T13:52:37.278Z,948.10
2023-04-18T13:55:05.952Z,999.90
2023-04-18T13:57:37.290Z,999.90
2023-04-18T14:00:06.983Z,999.90
2023-04-18T14:02:35.181Z,999.90
2023-04-18T14:05:03.523Z,999.90
2023-04-18T14:07:31.904Z,999.90
2023-04-18T14:09:59.876Z,999.90
2023-04-18T14:12:27.842Z,999.90
2023-04-18T14:14:57.149Z,815.53
2023-04-18T14:17:25.119Z,995.87
2023-04-18T14:19:53.178Z,999.90
2023-04-18T14:22:21.101Z,830.13
2023-04-18T14:24:49.204Z,999.90
2023-04-18T14:27:17.152Z,999.90
2023-04-18T14:29:45.303Z,999.90
2023-04-18T14:32:14.603Z,999.90
2023-04-18T14:34:42.819Z,999.90
2023-04-18T14:37:10.805Z,999.90
2023-04-18T14:39:39.204Z,999.90
2023-04-18T14:42:07.255Z,999.90
2023-04-18T14:44:35.453Z,999.90
2023-04-18T14:47:03.479Z,926.72
2023-04-18T14:49:32.834Z,999.90
2023-04-18T14:52:00.797Z,999.90
2023-04-18T14:54:29.988Z,999.90
2023-04-18T14:56:59.576Z,999.90
2023-04-18T14:59:28.798Z,971.47
2023-04-18T15:01:56.856Z,999.90
2023-04-18T15:04:24.996Z,999.90
2023-04-18T15:06:54.488Z,999.90
2023-04-18T15:09:22.751Z,999.90
2023-04-18T15:11:51.509Z,999.90
2023-04-18T15:14:19.817Z,983.33
2023-04-18T15:16:50.577Z,798.67
2023-04-18T15:19:18.633Z,999.90
2023-04-18T15:21:46.588Z,999.90
2023-04-18T15:24:16.527Z,909.10
2023-04-18T15:26:45.274Z,940.90
2023-04-18T15:29:13.706Z,999.90
2023-04-18T15:31:41.752Z,999.90
2023-04-18T15:34:10.264Z,881.60
2023-04-18T15:36:38.440Z,999.90
2023-04-18T15:39:06.776Z,999.90
2023-04-18T15:41:37.830Z,999.90
2023-04-18T15:44:07.860Z,857.67
2023-04-18T15:46:37.384Z,887.67
2023-04-18T15:49:05.447Z,999.90
2023-04-18T15:51:33.422Z,999.90
2023-04-18T15:54:01.487Z,909.63
2023-04-18T15:56:32.488Z,705.20
2023-04-18T15:59:04.409Z,742.40
2023-04-18T16:01:33.129Z,969.40
2023-04-18T16:04:01.299Z,999.23
2023-04-18T16:06:31.222Z,896.33
2023-04-18T16:08:59.300Z,981.60
2023-04-18T16:11:27.644Z,860.80
2023-04-18T16:13:56.146Z,999.90
2023-04-18T16:16:26.543Z,919.93
2023-04-18T16:18:54.637Z,795.97
2023-04-18T16:21:22.557Z,930.73
2023-04-18T16:23:50.511Z,999.90
2023-04-18T16:26:18.549Z,806.27
2023-04-18T16:28:48.150Z,988.07
2023-04-18T16:31:16.655Z,994.10
2023-04-18T16:33:46.167Z,922.23
2023-04-18T16:36:14.154Z,999.90
2023-04-18T16:38:42.122Z,840.87
2023-04-18T16:41:10.091Z,999.90
2023-04-18T16:43:38.191Z,906.60
2023-04-18T16:46:06.548Z,856.10
2023-04-18T16:48:34.616Z,999.90
2023-04-18T16:51:03.912Z,815.90
2023-04-18T16:53:31.883Z,999.90
2023-04-18T16:56:00.880Z,999.90
2023-04-18T16:58:28.818Z,962.37
2023-04-18T17:00:56.822Z,682.60
2023-04-18T17:03:24.903Z,999.90
2023-04-18T17:05:53.157Z,992.67
2023-04-18T17:08:22.466Z,999.90
2023-04-18T17:10:52.908Z,928.73
2023-04-18T17:13:22.446Z,999.90
2023-04-18T17:15:50.452Z,999.90
2023-04-18T17:18:18.438Z,843.17
2023-04-18T17:20:46.381Z,918.30
2023-04-18T17:23:14.446Z,858.67
2023-04-18T17:25:43.747Z,927.50
2023-04-18T17:28:11.856Z,720.33
2023-04-18T17:30:41.415Z,999.90
2023-04-18T17:33:10.271Z,896.40
2023-04-18T17:35:40.915Z,999.90
2023-04-18T17:38:10.479Z,603.37
2023-04-18T17:40:39.414Z,999.90
2023-04-18T17:43:08.731Z,823.40
2023-04-18T17:45:37.307Z,918.83
2023-04-18T17:48:05.967Z,897.03
2023-04-18T17:50:36.989Z,999.90
2023-04-18T17:53:05.103Z,753.13
2023-04-18T17:55:33.068Z,872.73
2023-04-18T17:58:01.040Z,999.90
2023-04-18T18:00:31.642Z,688.20
2023-04-18T18:03:01.378Z,580.73
2023-04-18T18:05:30.297Z,886.33
2023-04-18T18:07:58.512Z,983.43
2023-04-18T18:10:26.923Z,660.97
2023-04-18T18:12:54.863Z,921.37
2023-04-18T18:15:24.141Z,988.40
2023-04-18T18:17:54.882Z,579.13
2023-04-18T18:20:22.963Z,926.53
2023-04-18T18:22:51.462Z,668.97
2023-04-18T18:25:20.741Z,675.40
2023-04-18T18:27:49.414Z,285.63
2023-04-18T18:30:17.472Z,633.47
2023-04-18T18:32:45.570Z,769.77
2023-04-18T18:35:15.018Z,887.57
2023-04-18T18:37:42.991Z,444.43
2023-04-18T18:40:11.694Z,685.13
2023-04-18T18:42:39.645Z,304.03
2023-04-18T18:45:09.012Z,536.13
2023-04-18T18:47:39.629Z,779.90
2023-04-18T18:50:08.792Z,640.67
2023-04-18T18:52:40.728Z,896.43
2023-04-18T18:55:09.884Z,655.00
2023-04-18T18:57:38.155Z,990.60
2023-04-18T19:00:09.668Z,954.57
2023-04-18T19:02:38.101Z,462.80
2023-04-18T19:05:07.861Z,568.07
2023-04-18T19:07:37.180Z,644.57
2023-04-18T19:10:05.888Z,618.57
2023-04-18T19:12:33.818Z,331.90
2023-04-18T19:15:01.851Z,685.97
2023-04-18T19:17:30.982Z,441.10
2023-04-18T19:20:01.268Z,859.43
2023-04-18T19:22:29.445Z,689.47
2023-04-18T19:25:00.403Z,490.43
2023-04-18T19:27:28.340Z,997.17
2023-04-18T19:29:56.379Z,873.03
2023-04-18T19:32:24.369Z,632.23
2023-04-18T19:34:52.406Z,992.07
2023-04-18T19:37:20.374Z,364.13
2023-04-18T19:39:48.340Z,968.20
2023-04-18T19:42:17.694Z,883.70
2023-04-18T19:44:45.692Z,638.73
2023-04-18T19:47:13.671Z,682.67
2023-04-18T19:49:41.673Z,384.27
2023-04-18T19:52:09.654Z,711.00
2023-04-18T19:54:37.676Z,367.70
2023-04-18T19:57:06.323Z,420.90
2023-04-18T19:59:35.668Z,444.17
2023-04-18T20:02:05.965Z,762.40
2023-04-18T20:04:36.494Z,872.10
2023-04-18T20:07:04.724Z,726.27
2023-04-18T20:09:32.844Z,821.80
2023-04-18T20:12:02.006Z,777.30
2023-04-18T20:14:30.378Z,510.23
2023-04-18T20:16:59.738Z,805.83
2023-04-18T20:19:29.551Z,826.43
2023-04-18T20:21:57.556Z,735.47
2023-04-18T20:24:28.060Z,880.37
2023-04-18T20:26:57.266Z,764.93
2023-04-18T20:29:25.367Z,736.47
2023-04-18T20:31:53.463Z,889.83
2023-04-18T20:34:22.968Z,508.63
2023-04-18T20:36:52.465Z,835.37
2023-04-18T20:39:20.548Z,830.80
2023-04-18T20:41:51.465Z,509.00
2023-04-18T20:44:20.913Z,748.77
2023-04-18T20:46:48.948Z,999.90
2023-04-18T20:49:17.013Z,520.03
2023-04-18T20:51:46.525Z,829.47
2023-04-18T20:54:14.740Z,676.10
2023-04-18T20:56:42.980Z,842.83
2023-04-18T20:59:11.336Z,888.07
2023-04-18T21:01:39.400Z,594.90
2023-04-18T21:04:07.634Z,560.43
2023-04-18T21:06:36.576Z,502.07
2023-04-18T21:09:06.514Z,383.03
2023-04-18T21:11:34.497Z,799.33
2023-04-18T21:14:03.789Z,435.90
2023-04-18T21:16:31.837Z,591.10
2023-04-18T21:18:59.878Z,177.60
2023-04-18T21:21:27.845Z,533.93
2023-04-18T21:23:55.796Z,407.70
2023-04-18T21:26:25.128Z,947.93
2023-04-18T21:28:57.536Z,406.53
2023-04-18T21:31:25.938Z,424.73
2023-04-18T21:33:54.681Z,389.57
2023-04-18T21:36:22.702Z,647.97
2023-04-18T21:38:52.813Z,271.80
2023-04-18T21:41:21.370Z,167.90
2023-04-18T21:43:51.234Z,145.77
2023-04-18T21:46:19.674Z,215.80
2023-04-18T21:48:48.502Z,61.97
2023-04-18T21:51:17.723Z,217.20
2023-04-18T21:53:45.665Z,390.93
2023-04-18T21:56:14.095Z,110.37
2023-04-18T21:58:42.298Z,378.23
2023-04-18T22:01:11.687Z,365.77
2023-04-18T22:03:39.842Z,181.43
2023-04-18T22:06:08.086Z,131.73
2023-04-18T22:08:36.095Z,570.50
2023-04-18T22:11:04.793Z,197.63
2023-04-18T22:13:33.882Z,800.13
2023-04-18T22:16:03.568Z,340.13
2023-04-18T22:18:34.297Z,736.57
2023-04-18T22:21:03.316Z,87.67
2023-04-18T22:23:31.526Z,311.00
2023-04-18T22:25:59.526Z,269.67
2023-04-18T22:28:28.820Z,410.23
2023-04-18T22:30:57.151Z,701.40
2023-04-18T22:33:25.392Z,320.00
2023-04-18T22:35:55.657Z,234.47
2023-04-18T22:38:23.714Z,861.70
2023-04-18T22:40:51.906Z,252.73
2023-04-18T22:43:22.942Z,294.27
2023-04-18T22:45:51.165Z,454.03
2023-04-18T22:48:19.615Z,271.90
2023-04-18T22:50:47.580Z,54.57
2023-04-18T22:53:17.194Z,210.57
2023-04-18T22:55:45.842Z,297.00
2023-04-18T22:58:14.255Z,151.40
2023-04-18T23:00:42.218Z,116.73
2023-04-18T23:03:10.328Z,195.47
2023-04-18T23:05:38.417Z,122.23
2023-04-18T23:08:06.905Z,118.60
2023-04-18T23:10:36.596Z,108.27
2023-04-18T23:13:04.606Z,170.73
2023-04-18T23:15:32.632Z,91.43
2023-04-18T23:18:00.739Z,114.27
2023-04-18T23:20:28.796Z,79.47
2023-04-18T23:22:56.804Z,93.17
2023-04-18T23:25:24.777Z,149.13
2023-04-18T23:27:54.102Z,126.20
2023-04-18T23:30:22.113Z,205.40
2023-04-18T23:32:50.123Z,101.97
2023-04-18T23:35:18.217Z,149.13
2023-04-18T23:37:46.202Z,39.10
2023-04-18T23:40:14.512Z,113.30
2023-04-18T23:42:42.549Z,91.13
2023-04-18T23:45:12.752Z,151.30
2023-04-18T23:47:40.796Z,116.10
2023-04-18T23:50:09.844Z,131.10
2023-04-18T23:52:38.533Z,168.57
2023-04-18T23:55:07.426Z,207.87
2023-04-18T23:57:35.623Z,78.60
